sensor_id;sensor_type;location;lat;lon;timestamp;P1;durP1;ratioP1;P2;durP2;ratioP2
39356;SDS011;25077;50.302;18.996;2022-12-24T00:02:26;10.90;;;6.30;;
39356;SDS011;25077;50.302;18.996;2022-12-24T00:05:29;12.67;;;7.03;;
39356;SDS011;25077;50.302;18.996;2022-12-24T00:12:58;15.97;;;8.90;;
39356;SDS011;25077;50.302;18.996;2022-12-24T00:16:02;18.30;;;8.70;;
39356;SDS011;25077;50.302;18.996;2022-12-24T00:19:04;15.40;;;8.50;;
39356;SDS011;25077;50.302;18.996;2022-12-24T00:22:07;14.07;;;8.30;;
39356;SDS011;25077;50.302;18.996;2022-12-24T00:25:09;16.83;;;8.50;;
39356;SDS011;25077;50.302;18.996;2022-12-24T00:28:11;13.53;;;8.07;;
39356;SDS011;25077;50.302;18.996;2022-12-24T00:31:16;13.57;;;7.80;;
39356;SDS011;25077;50.302;18.996;2022-12-24T00:34:21;15.97;;;7.47;;
39356;SDS011;25077;50.302;18.996;2022-12-24T00:41:50;13.17;;;7.53;;
39356;SDS011;25077;50.302;18.996;2022-12-24T00:44:52;14.90;;;8.77;;
39356;SDS011;25077;50.302;18.996;2022-12-24T00:47:56;13.67;;;8.03;;
39356;SDS011;25077;50.302;18.996;2022-12-24T00:50:58;19.43;;;10.77;;
39356;SDS011;25077;50.302;18.996;2022-12-24T00:58:27;11.83;;;7.33;;
39356;SDS011;25077;50.302;18.996;2022-12-24T01:01:29;12.13;;;5.63;;
39356;SDS011;25077;50.302;18.996;2022-12-24T01:04:33;12.07;;;6.27;;
39356;SDS011;25077;50.302;18.996;2022-12-24T01:07:53;8.67;;;5.50;;
39356;SDS011;25077;50.302;18.996;2022-12-24T01:10:55;11.13;;;6.03;;
39356;SDS011;25077;50.302;18.996;2022-12-24T01:13:57;10.50;;;6.67;;
39356;SDS011;25077;50.302;18.996;2022-12-24T01:16:59;9.53;;;6.60;;
39356;SDS011;25077;50.302;18.996;2022-12-24T01:20:04;13.17;;;6.00;;
39356;SDS011;25077;50.302;18.996;2022-12-24T01:23:08;10.20;;;6.90;;
39356;SDS011;25077;50.302;18.996;2022-12-24T01:26:10;10.80;;;6.27;;
39356;SDS011;25077;50.302;18.996;2022-12-24T01:29:12;8.40;;;6.20;;
39356;SDS011;25077;50.302;18.996;2022-12-24T01:32:14;9.73;;;6.50;;
39356;SDS011;25077;50.302;18.996;2022-12-24T01:35:18;9.70;;;6.87;;
39356;SDS011;25077;50.302;18.996;2022-12-24T01:42:47;12.23;;;7.00;;
39356;SDS011;25077;50.302;18.996;2022-12-24T01:46:08;10.13;;;6.97;;
39356;SDS011;25077;50.302;18.996;2022-12-24T01:49:15;12.03;;;6.80;;
39356;SDS011;25077;50.302;18.996;2022-12-24T01:52:20;11.50;;;7.40;;
39356;SDS011;25077;50.302;18.996;2022-12-24T01:55:25;11.47;;;7.83;;
39356;SDS011;25077;50.302;18.996;2022-12-24T01:58:27;12.73;;;8.17;;
39356;SDS011;25077;50.302;18.996;2022-12-24T02:01:29;10.67;;;6.93;;
39356;SDS011;25077;50.302;18.996;2022-12-24T02:04:32;11.37;;;7.13;;
39356;SDS011;25077;50.302;18.996;2022-12-24T02:12:06;11.30;;;6.97;;
39356;SDS011;25077;50.302;18.996;2022-12-24T02:15:10;12.53;;;7.27;;
39356;SDS011;25077;50.302;18.996;2022-12-24T02:18:16;11.20;;;7.10;;
39356;SDS011;25077;50.302;18.996;2022-12-24T02:29:09;13.43;;;7.87;;
39356;SDS011;25077;50.302;18.996;2022-12-24T02:32:25;16.37;;;10.37;;
39356;SDS011;25077;50.302;18.996;2022-12-24T02:35:37;17.50;;;9.57;;
39356;SDS011;25077;50.302;18.996;2022-12-24T02:38:44;13.27;;;8.43;;
39356;SDS011;25077;50.302;18.996;2022-12-24T02:41:52;12.77;;;8.70;;
39356;SDS011;25077;50.302;18.996;2022-12-24T02:45:08;17.93;;;9.83;;
39356;SDS011;25077;50.302;18.996;2022-12-24T02:48:15;17.40;;;10.07;;
39356;SDS011;25077;50.302;18.996;2022-12-24T02:51:21;16.53;;;9.97;;
39356;SDS011;25077;50.302;18.996;2022-12-24T02:58:55;14.07;;;9.07;;
39356;SDS011;25077;50.302;18.996;2022-12-24T03:02:08;14.23;;;8.70;;
39356;SDS011;25077;50.302;18.996;2022-12-24T03:05:22;13.93;;;8.73;;
39356;SDS011;25077;50.302;18.996;2022-12-24T03:08:35;15.27;;;8.70;;
39356;SDS011;25077;50.302;18.996;2022-12-24T03:11:47;13.30;;;8.13;;
39356;SDS011;25077;50.302;18.996;2022-12-24T03:14:54;11.33;;;7.67;;
39356;SDS011;25077;50.302;18.996;2022-12-24T03:17:57;10.40;;;7.03;;
39356;SDS011;25077;50.302;18.996;2022-12-24T03:21:04;11.10;;;7.33;;
39356;SDS011;25077;50.302;18.996;2022-12-24T03:28:37;7.30;;;4.93;;
39356;SDS011;25077;50.302;18.996;2022-12-24T03:31:41;8.77;;;5.67;;
39356;SDS011;25077;50.302;18.996;2022-12-24T03:34:44;9.10;;;5.87;;
39356;SDS011;25077;50.302;18.996;2022-12-24T03:37:47;7.33;;;4.93;;
39356;SDS011;25077;50.302;18.996;2022-12-24T03:40:49;7.07;;;5.13;;
39356;SDS011;25077;50.302;18.996;2022-12-24T03:43:51;8.27;;;5.33;;
39356;SDS011;25077;50.302;18.996;2022-12-24T03:46:53;7.07;;;4.43;;
39356;SDS011;25077;50.302;18.996;2022-12-24T03:49:55;6.80;;;5.00;;
39356;SDS011;25077;50.302;18.996;2022-12-24T03:53:06;7.33;;;5.47;;
39356;SDS011;25077;50.302;18.996;2022-12-24T03:56:08;7.10;;;4.97;;
39356;SDS011;25077;50.302;18.996;2022-12-24T03:59:10;9.27;;;5.60;;
39356;SDS011;25077;50.302;18.996;2022-12-24T04:02:12;7.57;;;5.43;;
39356;SDS011;25077;50.302;18.996;2022-12-24T04:05:15;7.17;;;5.20;;
39356;SDS011;25077;50.302;18.996;2022-12-24T04:12:47;10.20;;;5.47;;
39356;SDS011;25077;50.302;18.996;2022-12-24T04:15:55;10.23;;;6.67;;
39356;SDS011;25077;50.302;18.996;2022-12-24T04:18:58;7.63;;;5.60;;
39356;SDS011;25077;50.302;18.996;2022-12-24T04:22:00;8.90;;;5.40;;
39356;SDS011;25077;50.302;18.996;2022-12-24T04:29:31;6.60;;;5.23;;
39356;SDS011;25077;50.302;18.996;2022-12-24T04:32:33;7.23;;;5.40;;
39356;SDS011;25077;50.302;18.996;2022-12-24T04:35:37;8.17;;;5.77;;
39356;SDS011;25077;50.302;18.996;2022-12-24T04:38:40;9.00;;;6.23;;
39356;SDS011;25077;50.302;18.996;2022-12-24T04:41:43;8.23;;;5.77;;
39356;SDS011;25077;50.302;18.996;2022-12-24T04:44:47;7.97;;;5.80;;
39356;SDS011;25077;50.302;18.996;2022-12-24T04:47:49;8.83;;;6.30;;
39356;SDS011;25077;50.302;18.996;2022-12-24T04:50:51;8.03;;;6.17;;
39356;SDS011;25077;50.302;18.996;2022-12-24T04:58:21;9.00;;;6.30;;
39356;SDS011;25077;50.302;18.996;2022-12-24T05:01:25;8.10;;;5.83;;
39356;SDS011;25077;50.302;18.996;2022-12-24T05:04:30;9.60;;;6.17;;
39356;SDS011;25077;50.302;18.996;2022-12-24T05:07:32;10.97;;;6.43;;
39356;SDS011;25077;50.302;18.996;2022-12-24T05:12:25;9.73;;;6.33;;
39356;SDS011;25077;50.302;18.996;2022-12-24T05:15:27;9.17;;;5.70;;
39356;SDS011;25077;50.302;18.996;2022-12-24T05:18:31;8.63;;;5.97;;
39356;SDS011;25077;50.302;18.996;2022-12-24T05:21:33;10.37;;;6.13;;
39356;SDS011;25077;50.302;18.996;2022-12-24T05:24:35;10.03;;;6.20;;
39356;SDS011;25077;50.302;18.996;2022-12-24T05:27:55;7.73;;;5.73;;
39356;SDS011;25077;50.302;18.996;2022-12-24T05:30:57;8.50;;;6.13;;
39356;SDS011;25077;50.302;18.996;2022-12-24T05:34:01;8.57;;;5.67;;
39356;SDS011;25077;50.302;18.996;2022-12-24T05:37:03;10.93;;;6.47;;
39356;SDS011;25077;50.302;18.996;2022-12-24T05:44:33;10.43;;;5.53;;
39356;SDS011;25077;50.302;18.996;2022-12-24T05:47:35;12.03;;;5.17;;
39356;SDS011;25077;50.302;18.996;2022-12-24T05:50:39;7.93;;;5.63;;
39356;SDS011;25077;50.302;18.996;2022-12-24T05:53:41;7.13;;;5.17;;
39356;SDS011;25077;50.302;18.996;2022-12-24T05:56:43;7.83;;;5.63;;
39356;SDS011;25077;50.302;18.996;2022-12-24T05:59:45;6.00;;;4.83;;
39356;SDS011;25077;50.302;18.996;2022-12-24T06:02:48;6.77;;;4.80;;
39356;SDS011;25077;50.302;18.996;2022-12-24T06:05:58;7.57;;;5.30;;
39356;SDS011;25077;50.302;18.996;2022-12-24T06:13:29;9.17;;;6.23;;
39356;SDS011;25077;50.302;18.996;2022-12-24T06:16:31;8.87;;;6.67;;
39356;SDS011;25077;50.302;18.996;2022-12-24T06:19:33;8.00;;;6.40;;
39356;SDS011;25077;50.302;18.996;2022-12-24T06:22:37;8.73;;;5.80;;
39356;SDS011;25077;50.302;18.996;2022-12-24T06:30:07;10.03;;;6.57;;
39356;SDS011;25077;50.302;18.996;2022-12-24T06:33:10;7.83;;;6.17;;
39356;SDS011;25077;50.302;18.996;2022-12-24T06:36:13;10.87;;;6.93;;
39356;SDS011;25077;50.302;18.996;2022-12-24T06:39:19;11.07;;;7.43;;
39356;SDS011;25077;50.302;18.996;2022-12-24T06:42:21;9.33;;;6.17;;
39356;SDS011;25077;50.302;18.996;2022-12-24T06:45:23;9.40;;;6.50;;
39356;SDS011;25077;50.302;18.996;2022-12-24T06:48:26;9.70;;;7.67;;
39356;SDS011;25077;50.302;18.996;2022-12-24T06:51:28;12.20;;;6.90;;
39356;SDS011;25077;50.302;18.996;2022-12-24T06:58:59;10.73;;;6.53;;
39356;SDS011;25077;50.302;18.996;2022-12-24T07:02:01;12.27;;;7.17;;
39356;SDS011;25077;50.302;18.996;2022-12-24T07:05:04;10.27;;;6.33;;
39356;SDS011;25077;50.302;18.996;2022-12-24T07:08:08;8.53;;;6.60;;
39356;SDS011;25077;50.302;18.996;2022-12-24T07:11:10;10.60;;;6.50;;
39356;SDS011;25077;50.302;18.996;2022-12-24T07:14:13;11.97;;;6.73;;
39356;SDS011;25077;50.302;18.996;2022-12-24T07:17:15;10.77;;;6.40;;
39356;SDS011;25077;50.302;18.996;2022-12-24T07:20:18;8.67;;;6.17;;
39356;SDS011;25077;50.302;18.996;2022-12-24T07:27:47;10.17;;;6.17;;
39356;SDS011;25077;50.302;18.996;2022-12-24T07:30:51;8.03;;;5.43;;
39356;SDS011;25077;50.302;18.996;2022-12-24T07:33:53;9.83;;;6.20;;
39356;SDS011;25077;50.302;18.996;2022-12-24T07:36:55;10.60;;;6.03;;
39356;SDS011;25077;50.302;18.996;2022-12-24T07:44:25;10.67;;;6.17;;
39356;SDS011;25077;50.302;18.996;2022-12-24T07:47:30;10.63;;;6.97;;
39356;SDS011;25077;50.302;18.996;2022-12-24T07:50:32;12.03;;;7.00;;
39356;SDS011;25077;50.302;18.996;2022-12-24T07:53:37;10.67;;;6.70;;
39356;SDS011;25077;50.302;18.996;2022-12-24T07:56:46;9.87;;;6.93;;
39356;SDS011;25077;50.302;18.996;2022-12-24T07:59:49;13.37;;;7.43;;
39356;SDS011;25077;50.302;18.996;2022-12-24T08:02:52;11.07;;;7.10;;
39356;SDS011;25077;50.302;18.996;2022-12-24T08:05:54;12.97;;;7.50;;
39356;SDS011;25077;50.302;18.996;2022-12-24T08:13:25;13.67;;;7.63;;
39356;SDS011;25077;50.302;18.996;2022-12-24T08:16:28;11.27;;;7.87;;
39356;SDS011;25077;50.302;18.996;2022-12-24T08:19:31;10.80;;;7.57;;
39356;SDS011;25077;50.302;18.996;2022-12-24T08:22:33;14.63;;;8.50;;
39356;SDS011;25077;50.302;18.996;2022-12-24T08:30:03;14.20;;;8.33;;
39356;SDS011;25077;50.302;18.996;2022-12-24T08:33:06;17.40;;;8.57;;
39356;SDS011;25077;50.302;18.996;2022-12-24T08:36:10;13.87;;;8.53;;
39356;SDS011;25077;50.302;18.996;2022-12-24T08:39:12;15.53;;;8.27;;
39356;SDS011;25077;50.302;18.996;2022-12-24T08:42:14;17.33;;;9.57;;
39356;SDS011;25077;50.302;18.996;2022-12-24T08:45:17;14.43;;;9.00;;
39356;SDS011;25077;50.302;18.996;2022-12-24T08:48:19;17.13;;;8.30;;
39356;SDS011;25077;50.302;18.996;2022-12-24T08:51:22;14.53;;;7.87;;
39356;SDS011;25077;50.302;18.996;2022-12-24T08:58:51;14.60;;;7.73;;
39356;SDS011;25077;50.302;18.996;2022-12-24T09:01:54;14.60;;;7.17;;
39356;SDS011;25077;50.302;18.996;2022-12-24T09:04:57;14.13;;;8.03;;
39356;SDS011;25077;50.302;18.996;2022-12-24T09:08:00;13.70;;;8.17;;
39356;SDS011;25077;50.302;18.996;2022-12-24T09:15:29;17.23;;;9.50;;
39356;SDS011;25077;50.302;18.996;2022-12-24T09:18:31;15.03;;;8.27;;
39356;SDS011;25077;50.302;18.996;2022-12-24T09:21:33;16.50;;;9.20;;
39356;SDS011;25077;50.302;18.996;2022-12-24T09:24:37;16.37;;;9.40;;
39356;SDS011;25077;50.302;18.996;2022-12-24T09:27:39;12.53;;;7.87;;
39356;SDS011;25077;50.302;18.996;2022-12-24T09:30:41;12.37;;;7.90;;
39356;SDS011;25077;50.302;18.996;2022-12-24T09:33:44;15.93;;;7.93;;
39356;SDS011;25077;50.302;18.996;2022-12-24T09:36:47;14.07;;;8.33;;
39356;SDS011;25077;50.302;18.996;2022-12-24T09:44:26;12.13;;;6.40;;
39356;SDS011;25077;50.302;18.996;2022-12-24T09:47:38;14.77;;;7.87;;
39356;SDS011;25077;50.302;18.996;2022-12-24T09:50:44;12.57;;;7.30;;
39356;SDS011;25077;50.302;18.996;2022-12-24T09:53:52;13.60;;;7.00;;
39356;SDS011;25077;50.302;18.996;2022-12-24T09:58:48;14.90;;;6.07;;
39356;SDS011;25077;50.302;18.996;2022-12-24T10:01:56;12.10;;;6.53;;
39356;SDS011;25077;50.302;18.996;2022-12-24T10:04:58;12.43;;;6.53;;
39356;SDS011;25077;50.302;18.996;2022-12-24T10:08:02;12.80;;;6.17;;
39356;SDS011;25077;50.302;18.996;2022-12-24T10:11:15;9.60;;;5.40;;
39356;SDS011;25077;50.302;18.996;2022-12-24T10:14:25;11.23;;;5.67;;
39356;SDS011;25077;50.302;18.996;2022-12-24T10:17:48;7.27;;;4.73;;
39356;SDS011;25077;50.302;18.996;2022-12-24T10:20:58;7.90;;;4.33;;
39356;SDS011;25077;50.302;18.996;2022-12-24T10:24:08;7.70;;;4.13;;
39356;SDS011;25077;50.302;18.996;2022-12-24T10:27:18;7.63;;;4.00;;
39356;SDS011;25077;50.302;18.996;2022-12-24T10:30:25;12.10;;;4.50;;
39356;SDS011;25077;50.302;18.996;2022-12-24T10:33:30;7.33;;;4.10;;
39356;SDS011;25077;50.302;18.996;2022-12-24T10:36:36;12.70;;;5.90;;
39356;SDS011;25077;50.302;18.996;2022-12-24T10:44:05;11.00;;;5.30;;
39356;SDS011;25077;50.302;18.996;2022-12-24T10:47:15;9.80;;;5.20;;
39356;SDS011;25077;50.302;18.996;2022-12-24T10:50:23;11.80;;;5.80;;
39356;SDS011;25077;50.302;18.996;2022-12-24T10:53:31;10.97;;;6.07;;
39356;SDS011;25077;50.302;18.996;2022-12-24T11:01:05;6.33;;;4.23;;
39356;SDS011;25077;50.302;18.996;2022-12-24T11:04:12;9.47;;;4.43;;
39356;SDS011;25077;50.302;18.996;2022-12-24T11:07:19;8.03;;;4.47;;
39356;SDS011;25077;50.302;18.996;2022-12-24T11:10:24;7.63;;;4.07;;
39356;SDS011;25077;50.302;18.996;2022-12-24T11:13:26;8.67;;;4.03;;
39356;SDS011;25077;50.302;18.996;2022-12-24T11:16:31;11.77;;;4.87;;
39356;SDS011;25077;50.302;18.996;2022-12-24T11:19:36;9.60;;;4.33;;
39356;SDS011;25077;50.302;18.996;2022-12-24T11:22:40;7.83;;;4.53;;
39356;SDS011;25077;50.302;18.996;2022-12-24T11:30:24;12.67;;;6.00;;
39356;SDS011;25077;50.302;18.996;2022-12-24T11:33:31;14.17;;;7.67;;
39356;SDS011;25077;50.302;18.996;2022-12-24T11:36:45;9.83;;;5.40;;
39356;SDS011;25077;50.302;18.996;2022-12-24T11:39:49;11.73;;;6.13;;
39356;SDS011;25077;50.302;18.996;2022-12-24T11:42:55;13.23;;;6.77;;
39356;SDS011;25077;50.302;18.996;2022-12-24T11:46:00;13.50;;;6.40;;
39356;SDS011;25077;50.302;18.996;2022-12-24T11:49:15;17.33;;;7.33;;
39356;SDS011;25077;50.302;18.996;2022-12-24T11:52:23;16.33;;;7.00;;
39356;SDS011;25077;50.302;18.996;2022-12-24T11:59:54;13.97;;;7.30;;
39356;SDS011;25077;50.302;18.996;2022-12-24T12:02:57;15.17;;;8.00;;
39356;SDS011;25077;50.302;18.996;2022-12-24T12:06:03;13.73;;;7.97;;
39356;SDS011;25077;50.302;18.996;2022-12-24T12:09:17;11.87;;;6.63;;
39356;SDS011;25077;50.302;18.996;2022-12-24T12:16:52;10.10;;;5.90;;
39356;SDS011;25077;50.302;18.996;2022-12-24T12:20:03;10.33;;;6.30;;
39356;SDS011;25077;50.302;18.996;2022-12-24T12:23:13;11.23;;;6.63;;
39356;SDS011;25077;50.302;18.996;2022-12-24T12:30:54;9.63;;;6.57;;
39356;SDS011;25077;50.302;18.996;2022-12-24T12:34:04;13.27;;;6.03;;
39356;SDS011;25077;50.302;18.996;2022-12-24T12:37:11;14.63;;;4.70;;
39356;SDS011;25077;50.302;18.996;2022-12-24T12:40:18;14.10;;;6.30;;
39356;SDS011;25077;50.302;18.996;2022-12-24T12:43:24;12.27;;;6.07;;
39356;SDS011;25077;50.302;18.996;2022-12-24T12:46:39;6.20;;;3.90;;
39356;SDS011;25077;50.302;18.996;2022-12-24T12:49:56;8.43;;;3.80;;
39356;SDS011;25077;50.302;18.996;2022-12-24T12:53:09;10.80;;;4.17;;
39356;SDS011;25077;50.302;18.996;2022-12-24T13:00:52;10.07;;;5.23;;
39356;SDS011;25077;50.302;18.996;2022-12-24T13:04:09;7.63;;;4.27;;
39356;SDS011;25077;50.302;18.996;2022-12-24T13:07:41;7.77;;;4.37;;
39356;SDS011;25077;50.302;18.996;2022-12-24T13:11:13;15.40;;;7.00;;
39356;SDS011;25077;50.302;18.996;2022-12-24T13:14:30;10.87;;;5.80;;
39356;SDS011;25077;50.302;18.996;2022-12-24T13:17:56;12.53;;;6.10;;
39356;SDS011;25077;50.302;18.996;2022-12-24T13:21:14;7.23;;;4.43;;
39356;SDS011;25077;50.302;18.996;2022-12-24T13:24:20;9.27;;;4.57;;
39356;SDS011;25077;50.302;18.996;2022-12-24T13:31:51;17.63;;;8.77;;
39356;SDS011;25077;50.302;18.996;2022-12-24T13:34:55;13.10;;;8.03;;
39356;SDS011;25077;50.302;18.996;2022-12-24T13:41:44;25.13;;;11.70;;
39356;SDS011;25077;50.302;18.996;2022-12-24T13:44:53;21.07;;;9.70;;
39356;SDS011;25077;50.302;18.996;2022-12-24T13:48:42;20.57;;;10.30;;
39356;SDS011;25077;50.302;18.996;2022-12-24T13:51:44;18.47;;;10.23;;
39356;SDS011;25077;50.302;18.996;2022-12-24T13:54:48;22.77;;;10.83;;
39356;SDS011;25077;50.302;18.996;2022-12-24T13:59:35;16.87;;;8.10;;
39356;SDS011;25077;50.302;18.996;2022-12-24T14:02:39;17.83;;;8.30;;
39356;SDS011;25077;50.302;18.996;2022-12-24T14:05:49;18.87;;;8.37;;
39356;SDS011;25077;50.302;18.996;2022-12-24T14:08:55;12.13;;;6.43;;
39356;SDS011;25077;50.302;18.996;2022-12-24T14:16:39;17.07;;;7.30;;
39356;SDS011;25077;50.302;18.996;2022-12-24T14:19:45;14.03;;;6.80;;
39356;SDS011;25077;50.302;18.996;2022-12-24T14:22:50;14.77;;;7.13;;
39356;SDS011;25077;50.302;18.996;2022-12-24T14:25:52;15.07;;;6.70;;
39356;SDS011;25077;50.302;18.996;2022-12-24T14:28:55;9.63;;;5.60;;
39356;SDS011;25077;50.302;18.996;2022-12-24T14:32:00;12.70;;;5.47;;
39356;SDS011;25077;50.302;18.996;2022-12-24T14:35:07;10.40;;;5.03;;
39356;SDS011;25077;50.302;18.996;2022-12-24T14:38:15;11.03;;;5.70;;
39356;SDS011;25077;50.302;18.996;2022-12-24T14:45:47;13.27;;;6.33;;
39356;SDS011;25077;50.302;18.996;2022-12-24T14:48:56;11.23;;;5.73;;
39356;SDS011;25077;50.302;18.996;2022-12-24T14:52:08;20.00;;;7.33;;
39356;SDS011;25077;50.302;18.996;2022-12-24T14:55:28;12.93;;;6.23;;
39356;SDS011;25077;50.302;18.996;2022-12-24T14:58:32;17.87;;;7.97;;
39356;SDS011;25077;50.302;18.996;2022-12-24T15:01:37;16.80;;;7.27;;
39356;SDS011;25077;50.302;18.996;2022-12-24T15:04:40;12.77;;;6.10;;
39356;SDS011;25077;50.302;18.996;2022-12-24T15:07:45;26.47;;;12.30;;
39356;SDS011;25077;50.302;18.996;2022-12-24T15:15:16;29.77;;;14.60;;
39356;SDS011;25077;50.302;18.996;2022-12-24T15:18:19;31.93;;;14.10;;
39356;SDS011;25077;50.302;18.996;2022-12-24T15:21:27;26.20;;;12.23;;
39356;SDS011;25077;50.302;18.996;2022-12-24T15:24:32;21.43;;;12.43;;
39356;SDS011;25077;50.302;18.996;2022-12-24T15:32:02;19.83;;;11.60;;
39356;SDS011;25077;50.302;18.996;2022-12-24T15:35:05;17.90;;;9.03;;
39356;SDS011;25077;50.302;18.996;2022-12-24T15:38:10;22.30;;;10.00;;
39356;SDS011;25077;50.302;18.996;2022-12-24T15:41:25;22.93;;;9.20;;
39356;SDS011;25077;50.302;18.996;2022-12-24T15:44:31;21.90;;;8.97;;
39356;SDS011;25077;50.302;18.996;2022-12-24T15:47:35;19.17;;;10.23;;
39356;SDS011;25077;50.302;18.996;2022-12-24T15:50:44;26.50;;;10.27;;
39356;SDS011;25077;50.302;18.996;2022-12-24T15:53:48;15.60;;;8.33;;
39356;SDS011;25077;50.302;18.996;2022-12-24T16:01:25;18.93;;;8.57;;
39356;SDS011;25077;50.302;18.996;2022-12-24T16:04:28;22.53;;;10.00;;
39356;SDS011;25077;50.302;18.996;2022-12-24T16:07:31;24.30;;;10.83;;
39356;SDS011;25077;50.302;18.996;2022-12-24T16:11:07;25.83;;;11.00;;
39356;SDS011;25077;50.302;18.996;2022-12-24T16:14:12;19.73;;;9.70;;
39356;SDS011;25077;50.302;18.996;2022-12-24T16:17:20;30.13;;;12.57;;
39356;SDS011;25077;50.302;18.996;2022-12-24T16:20:23;25.07;;;12.23;;
39356;SDS011;25077;50.302;18.996;2022-12-24T16:23:26;25.47;;;12.40;;
39356;SDS011;25077;50.302;18.996;2022-12-24T16:31:02;21.60;;;10.07;;
39356;SDS011;25077;50.302;18.996;2022-12-24T16:34:04;20.40;;;7.97;;
39356;SDS011;25077;50.302;18.996;2022-12-24T16:37:06;18.30;;;8.17;;
39356;SDS011;25077;50.302;18.996;2022-12-24T16:40:11;17.77;;;7.87;;
39356;SDS011;25077;50.302;18.996;2022-12-24T16:47:42;20.03;;;9.37;;
39356;SDS011;25077;50.302;18.996;2022-12-24T16:50:44;21.83;;;10.40;;
39356;SDS011;25077;50.302;18.996;2022-12-24T16:53:47;16.57;;;8.47;;
39356;SDS011;25077;50.302;18.996;2022-12-24T16:56:49;17.97;;;8.33;;
39356;SDS011;25077;50.302;18.996;2022-12-24T16:59:51;18.83;;;9.57;;
39356;SDS011;25077;50.302;18.996;2022-12-24T17:02:55;19.77;;;9.60;;
39356;SDS011;25077;50.302;18.996;2022-12-24T17:05:57;22.10;;;10.00;;
39356;SDS011;25077;50.302;18.996;2022-12-24T17:09:00;20.70;;;9.43;;
39356;SDS011;25077;50.302;18.996;2022-12-24T17:16:29;17.63;;;8.27;;
39356;SDS011;25077;50.302;18.996;2022-12-24T17:19:33;21.23;;;9.23;;
39356;SDS011;25077;50.302;18.996;2022-12-24T17:22:36;22.70;;;9.10;;
39356;SDS011;25077;50.302;18.996;2022-12-24T17:25:39;23.57;;;8.53;;
39356;SDS011;25077;50.302;18.996;2022-12-24T17:33:08;19.57;;;7.80;;
39356;SDS011;25077;50.302;18.996;2022-12-24T17:36:12;15.33;;;7.87;;
39356;SDS011;25077;50.302;18.996;2022-12-24T17:39:14;17.93;;;8.63;;
39356;SDS011;25077;50.302;18.996;2022-12-24T17:42:16;21.37;;;9.20;;
39356;SDS011;25077;50.302;18.996;2022-12-24T17:45:18;18.57;;;9.57;;
39356;SDS011;25077;50.302;18.996;2022-12-24T17:48:20;19.10;;;9.47;;
39356;SDS011;25077;50.302;18.996;2022-12-24T17:51:24;18.03;;;8.73;;
39356;SDS011;25077;50.302;18.996;2022-12-24T17:54:28;20.30;;;10.10;;
39356;SDS011;25077;50.302;18.996;2022-12-24T18:01:57;23.97;;;11.23;;
39356;SDS011;25077;50.302;18.996;2022-12-24T18:04:59;17.20;;;9.30;;
39356;SDS011;25077;50.302;18.996;2022-12-24T18:08:03;19.00;;;9.20;;
39356;SDS011;25077;50.302;18.996;2022-12-24T18:11:11;22.70;;;10.57;;
39356;SDS011;25077;50.302;18.996;2022-12-24T18:14:14;23.97;;;11.07;;
39356;SDS011;25077;50.302;18.996;2022-12-24T18:17:17;26.70;;;11.20;;
39356;SDS011;25077;50.302;18.996;2022-12-24T18:20:19;29.33;;;11.90;;
39356;SDS011;25077;50.302;18.996;2022-12-24T18:23:23;28.70;;;12.30;;
39356;SDS011;25077;50.302;18.996;2022-12-24T18:30:55;24.63;;;10.17;;
39356;SDS011;25077;50.302;18.996;2022-12-24T18:33:59;30.97;;;10.27;;
39356;SDS011;25077;50.302;18.996;2022-12-24T18:37:02;25.80;;;11.33;;
39356;SDS011;25077;50.302;18.996;2022-12-24T18:40:06;26.77;;;11.40;;
39356;SDS011;25077;50.302;18.996;2022-12-24T18:47:35;32.30;;;14.63;;
39356;SDS011;25077;50.302;18.996;2022-12-24T18:50:38;32.73;;;14.83;;
39356;SDS011;25077;50.302;18.996;2022-12-24T18:53:41;32.53;;;14.40;;
39356;SDS011;25077;50.302;18.996;2022-12-24T18:56:44;29.17;;;14.50;;
39356;SDS011;25077;50.302;18.996;2022-12-24T18:59:47;29.50;;;14.13;;
39356;SDS011;25077;50.302;18.996;2022-12-24T19:02:49;32.67;;;13.27;;
39356;SDS011;25077;50.302;18.996;2022-12-24T19:05:51;24.53;;;11.63;;
39356;SDS011;25077;50.302;18.996;2022-12-24T19:08:53;28.30;;;12.77;;
39356;SDS011;25077;50.302;18.996;2022-12-24T19:16:24;19.40;;;10.23;;
39356;SDS011;25077;50.302;18.996;2022-12-24T19:19:27;20.93;;;9.33;;
39356;SDS011;25077;50.302;18.996;2022-12-24T19:22:30;21.77;;;10.53;;
39356;SDS011;25077;50.302;18.996;2022-12-24T19:25:32;24.50;;;11.10;;
39356;SDS011;25077;50.302;18.996;2022-12-24T19:33:03;20.67;;;9.17;;
39356;SDS011;25077;50.302;18.996;2022-12-24T19:36:06;22.80;;;10.30;;
39356;SDS011;25077;50.302;18.996;2022-12-24T19:39:09;21.23;;;10.43;;
39356;SDS011;25077;50.302;18.996;2022-12-24T19:42:11;22.40;;;11.13;;
39356;SDS011;25077;50.302;18.996;2022-12-24T19:45:13;24.90;;;11.83;;
39356;SDS011;25077;50.302;18.996;2022-12-24T19:48:17;20.90;;;9.93;;
39356;SDS011;25077;50.302;18.996;2022-12-24T19:51:19;23.03;;;9.90;;
39356;SDS011;25077;50.302;18.996;2022-12-24T19:54:22;24.03;;;10.07;;
39356;SDS011;25077;50.302;18.996;2022-12-24T20:01:52;22.67;;;10.23;;
39356;SDS011;25077;50.302;18.996;2022-12-24T20:04:56;27.60;;;10.63;;
39356;SDS011;25077;50.302;18.996;2022-12-24T20:07:58;20.50;;;10.47;;
39356;SDS011;25077;50.302;18.996;2022-12-24T20:11:02;26.53;;;10.67;;
39356;SDS011;25077;50.302;18.996;2022-12-24T20:18:33;29.10;;;13.03;;
39356;SDS011;25077;50.302;18.996;2022-12-24T20:21:36;25.63;;;12.30;;
39356;SDS011;25077;50.302;18.996;2022-12-24T20:24:38;28.40;;;12.23;;
39356;SDS011;25077;50.302;18.996;2022-12-24T20:27:40;29.73;;;11.63;;
39356;SDS011;25077;50.302;18.996;2022-12-24T20:30:43;28.03;;;12.50;;
39356;SDS011;25077;50.302;18.996;2022-12-24T20:33:45;28.57;;;12.93;;
39356;SDS011;25077;50.302;18.996;2022-12-24T20:36:48;24.00;;;12.13;;
39356;SDS011;25077;50.302;18.996;2022-12-24T20:39:50;28.80;;;12.63;;
39356;SDS011;25077;50.302;18.996;2022-12-24T20:47:21;28.57;;;13.30;;
39356;SDS011;25077;50.302;18.996;2022-12-24T20:50:24;28.40;;;12.97;;
39356;SDS011;25077;50.302;18.996;2022-12-24T20:53:27;26.93;;;12.47;;
39356;SDS011;25077;50.302;18.996;2022-12-24T20:56:29;29.10;;;12.83;;
39356;SDS011;25077;50.302;18.996;2022-12-24T21:04:00;37.07;;;14.40;;
39356;SDS011;25077;50.302;18.996;2022-12-24T21:07:03;31.77;;;14.07;;
39356;SDS011;25077;50.302;18.996;2022-12-24T21:10:07;31.77;;;16.37;;
39356;SDS011;25077;50.302;18.996;2022-12-24T21:13:10;35.73;;;16.47;;
39356;SDS011;25077;50.302;18.996;2022-12-24T21:16:11;33.63;;;15.60;;
39356;SDS011;25077;50.302;18.996;2022-12-24T21:19:14;35.20;;;14.50;;
39356;SDS011;25077;50.302;18.996;2022-12-24T21:22:18;34.27;;;13.67;;
39356;SDS011;25077;50.302;18.996;2022-12-24T21:25:21;37.40;;;14.20;;
39356;SDS011;25077;50.302;18.996;2022-12-24T21:32:50;30.33;;;13.17;;
39356;SDS011;25077;50.302;18.996;2022-12-24T21:35:56;34.13;;;13.80;;
39356;SDS011;25077;50.302;18.996;2022-12-24T21:38:58;33.30;;;14.33;;
39356;SDS011;25077;50.302;18.996;2022-12-24T21:42:02;28.27;;;14.40;;
39356;SDS011;25077;50.302;18.996;2022-12-24T21:45:04;37.80;;;15.50;;
39356;SDS011;25077;50.302;18.996;2022-12-24T21:48:07;35.40;;;15.67;;
39356;SDS011;25077;50.302;18.996;2022-12-24T21:51:30;36.40;;;15.97;;
39356;SDS011;25077;50.302;18.996;2022-12-24T21:54:32;33.10;;;15.70;;